createdAt,value
2024-04-19T00:01:53.939Z,100841.63
2024-04-19T00:04:21.415Z,100826.56
2024-04-19T00:06:53.735Z,100822.16
2024-04-19T00:09:20.971Z,100809.75
2024-04-19T00:11:50.515Z,100805.88
2024-04-19T00:14:17.792Z,100799.03
2024-04-19T00:16:47.592Z,100797.22
2024-04-19T00:19:17.175Z,100792.91
2024-04-19T00:21:44.215Z,100783.97
2024-04-19T00:24:16.593Z,100786.50
2024-04-19T00:26:43.629Z,100791.81
2024-04-19T00:29:13.320Z,100781.34
2024-04-19T00:31:40.369Z,100782.06
2024-04-19T00:34:10.469Z,100778.69
2024-04-19T00:36:37.647Z,100774.34
2024-04-19T00:39:07.361Z,100772.66
2024-04-19T00:41:36.981Z,100773.59
2024-04-19T00:44:06.579Z,100780.97
2024-04-19T00:46:34.197Z,100768.44
2024-04-19T00:49:04.257Z,100763.25
2024-04-19T00:51:33.167Z,100758.44
2024-04-19T00:54:02.967Z,100748.31
2024-04-19T00:56:32.094Z,100745.88
2024-04-19T00:59:04.329Z,100741.91
2024-04-19T01:01:31.861Z,100728.06
2024-04-19T01:04:01.557Z,100723.00
2024-04-19T01:06:28.739Z,100712.75
2024-04-19T01:08:58.543Z,100706.38
2024-04-19T01:11:32.164Z,100696.13
2024-04-19T01:14:04.591Z,100700.84
2024-04-19T01:16:31.828Z,100686.75
2024-04-19T01:19:01.434Z,100681.81
2024-04-19T01:21:29.973Z,100680.47
2024-04-19T01:24:08.557Z,100674.34
2024-04-19T01:26:37.971Z,100677.09
2024-04-19T01:29:07.341Z,100667.47
2024-04-19T01:31:34.248Z,100662.41
2024-04-19T01:34:03.686Z,100659.03
2024-04-19T01:36:30.598Z,100652.19
2024-04-19T01:39:00.004Z,100640.75
2024-04-19T01:41:27.073Z,100633.78
2024-04-19T01:43:59.686Z,100634.84
2024-04-19T01:46:26.502Z,100627.03
2024-04-19T01:48:56.004Z,100619.09
2024-04-19T01:51:22.981Z,100611.41
2024-04-19T01:53:52.424Z,100613.31
2024-04-19T01:56:21.906Z,100607.19
2024-04-19T01:58:48.745Z,100601.06
2024-04-19T02:01:21.045Z,100586.97
2024-04-19T02:03:48.024Z,100578.56
2024-04-19T02:06:18.481Z,100569.06
2024-04-19T02:08:45.332Z,100555.09
2024-04-19T02:11:14.755Z,100554.16
2024-04-19T02:13:41.579Z,100548.88
2024-04-19T02:16:10.938Z,100545.50
2024-04-19T02:18:40.390Z,100539.34
2024-04-19T02:21:09.860Z,100540.31
2024-04-19T02:23:46.403Z,100521.94
2024-04-19T02:26:13.495Z,100521.19
2024-04-19T02:29:00.092Z,100510.63
2024-04-19T02:31:30.194Z,100499.34
2024-04-19T02:34:02.289Z,100491.63
2024-04-19T02:36:29.184Z,100490.91
2024-04-19T02:38:58.575Z,100476.72
2024-04-19T02:41:28.020Z,100483.69
2024-04-19T02:43:57.373Z,100478.88
2024-04-19T02:46:26.847Z,100458.00
2024-04-19T02:48:56.340Z,100464.13
2024-04-19T02:51:28.404Z,100452.84
2024-04-19T02:53:57.788Z,100439.97
2024-04-19T02:56:27.375Z,100450.41
2024-04-19T02:58:56.786Z,100443.19
2024-04-19T03:01:26.269Z,100429.50
2024-04-19T03:03:55.701Z,100431.31
2024-04-19T03:06:27.886Z,100425.28
2024-04-19T03:08:57.316Z,100426.25
2024-04-19T03:11:46.859Z,100414.84
2024-04-19T03:14:16.266Z,100411.56
2024-04-19T03:16:45.635Z,100407.03
2024-04-19T03:19:14.977Z,100402.72
2024-04-19T03:21:47.028Z,100402.72
2024-04-19T03:24:16.458Z,100383.13
2024-04-19T03:26:47.577Z,100383.72
2024-04-19T03:29:17.005Z,100373.16
2024-04-19T03:31:46.408Z,100373.38
2024-04-19T03:34:15.934Z,100370.63
2024-04-19T03:36:47.934Z,100352.84
2024-04-19T03:39:17.251Z,100351.88
2024-04-19T03:41:48.174Z,100345.63
2024-04-19T03:44:33.726Z,100345.50
2024-04-19T03:47:03.121Z,100327.13
2024-04-19T03:49:32.598Z,100321.72
2024-04-19T03:52:04.622Z,100321.38
2024-04-19T03:54:34.025Z,100308.38
2024-04-19T03:57:03.673Z,100309.25
2024-04-19T03:59:33.087Z,100302.03
2024-04-19T04:02:17.913Z,100299.13
2024-04-19T04:04:56.595Z,100281.59
2024-04-19T04:07:28.615Z,100271.63
2024-04-19T04:09:58.186Z,100266.91
2024-04-19T04:12:27.665Z,100263.44
2024-04-19T04:14:57.080Z,100247.69
2024-04-19T04:17:26.592Z,100241.34
2024-04-19T04:19:56.308Z,100236.88
2024-04-19T04:22:28.371Z,100235.19
2024-04-19T04:24:57.752Z,100221.25
2024-04-19T04:27:27.549Z,100221.97
2024-04-19T04:29:56.991Z,100215.75
2024-04-19T04:32:26.424Z,100204.06
2024-04-19T04:34:55.793Z,100198.06
2024-04-19T04:37:29.751Z,100196.00
2024-04-19T04:39:59.228Z,100189.75
2024-04-19T04:42:28.734Z,100191.44
2024-04-19T04:44:58.155Z,100188.53
2024-04-19T04:47:27.618Z,100180.75
2024-04-19T04:49:57.081Z,100178.09
2024-04-19T04:52:29.400Z,100175.31
2024-04-19T04:54:58.981Z,100171.00
2024-04-19T04:57:28.522Z,100169.47
2024-04-19T04:59:57.986Z,100169.31
2024-04-19T05:02:27.480Z,100162.81
2024-04-19T05:04:57.772Z,100153.19
2024-04-19T05:07:31.124Z,100146.09
2024-04-19T05:10:00.576Z,100150.81
2024-04-19T05:12:30.388Z,100143.44
2024-04-19T05:14:59.986Z,100132.88
2024-04-19T05:17:29.519Z,100135.41
2024-04-19T05:19:58.958Z,100129.84
2024-04-19T05:22:30.950Z,100127.66
2024-04-19T05:25:00.357Z,100127.81
2024-04-19T05:27:29.839Z,100126.97
2024-04-19T05:29:59.240Z,100122.00
2024-04-19T05:32:28.710Z,100115.59
2024-04-19T05:34:58.182Z,100116.34
2024-04-19T05:37:27.610Z,100111.16
2024-04-19T05:39:59.601Z,100100.06
2024-04-19T05:42:30.668Z,100099.94
2024-04-19T05:45:01.162Z,100102.69
2024-04-19T05:47:30.569Z,100095.75
2024-04-19T05:49:59.962Z,100088.41
2024-04-19T05:52:29.390Z,100092.56
2024-04-19T05:55:01.715Z,100075.63
2024-04-19T05:57:31.244Z,100075.78
2024-04-19T06:00:00.753Z,100084.69
2024-04-19T06:02:30.293Z,100078.88
2024-04-19T06:04:59.778Z,100084.69
2024-04-19T06:07:29.182Z,100076.63
2024-04-19T06:10:01.206Z,100070.63
2024-04-19T06:12:30.512Z,100079.28
2024-04-19T06:14:59.923Z,100074.56
2024-04-19T06:17:29.422Z,100079.72
2024-04-19T06:19:58.867Z,100074.75
2024-04-19T06:22:28.297Z,100073.91
2024-04-19T06:24:57.894Z,100067.38
2024-04-19T06:27:29.963Z,100065.56
2024-04-19T06:29:59.371Z,100055.69
2024-04-19T06:32:28.790Z,100056.50
2024-04-19T06:34:58.221Z,100039.66
2024-04-19T06:37:28.445Z,100034.94
2024-04-19T06:40:05.434Z,100031.19
2024-04-19T06:42:39.829Z,100039.13
2024-04-19T06:45:10.004Z,100041.66
2024-04-19T06:47:39.745Z,100041.22
2024-04-19T06:50:09.990Z,100053.38
2024-04-19T06:52:39.441Z,100046.00
2024-04-19T06:55:09.064Z,100033.34
2024-04-19T06:57:41.241Z,100037.66
2024-04-19T07:00:22.153Z,100026.81
2024-04-19T07:03:03.440Z,100036.28
2024-04-19T07:05:33.846Z,100026.69
2024-04-19T07:08:03.319Z,100027.69
2024-04-19T07:10:32.748Z,100032.53
2024-04-19T07:13:05.146Z,100033.25
2024-04-19T07:15:34.865Z,100030.31
2024-04-19T07:18:07.062Z,100025.59
2024-04-19T07:20:36.532Z,100028.94
2024-04-19T07:23:05.975Z,100026.03
2024-04-19T07:25:35.423Z,100028.38
2024-04-19T07:28:08.087Z,100033.28
2024-04-19T07:30:37.596Z,100038.28
2024-04-19T07:33:07.505Z,100031.31
2024-04-19T07:35:36.968Z,100045.00
2024-04-19T07:38:06.714Z,100043.75
2024-04-19T07:40:36.918Z,100045.56
2024-04-19T07:43:09.006Z,100042.78
2024-04-19T07:45:38.496Z,100042.38
2024-04-19T07:48:08.844Z,100036.63
2024-04-19T07:50:38.350Z,100024.09
2024-04-19T07:53:09.666Z,100035.53
2024-04-19T07:55:41.432Z,100031.91
2024-04-19T07:58:13.637Z,100026.22
2024-04-19T08:00:43.535Z,100022.19
2024-04-19T08:03:12.968Z,100021.31
2024-04-19T08:05:42.384Z,100024.25
2024-04-19T08:08:11.825Z,100018.78
2024-04-19T08:10:41.229Z,100010.25
2024-04-19T08:13:13.507Z,100012.22
2024-04-19T08:15:43.211Z,100013.47
2024-04-19T08:18:12.929Z,100008.41
2024-04-19T08:20:42.420Z,100004.19
2024-04-19T08:23:13.482Z,99996.66
2024-04-19T08:25:44.178Z,99990.44
2024-04-19T08:28:16.328Z,99990.34
2024-04-19T08:30:45.878Z,99981.63
2024-04-19T08:33:15.411Z,99989.84
2024-04-19T08:35:45.043Z,99987.59
2024-04-19T08:38:14.566Z,99981.53
2024-04-19T08:40:53.844Z,99978.59
2024-04-19T08:43:26.497Z,99978.69
2024-04-19T08:46:00.900Z,99976.97
2024-04-19T08:48:32.742Z,99983.88
2024-04-19T08:51:03.463Z,99980.16
2024-04-19T08:53:33.456Z,99972.13
2024-04-19T08:56:04.448Z,99965.38
2024-04-19T08:58:38.027Z,99973.56
2024-04-19T22:50:53.368Z,100616.19
2024-04-19T22:53:22.726Z,100611.75
2024-04-19T22:55:56.703Z,100619.69
2024-04-19T22:58:26.694Z,100616.09
2024-04-19T23:00:56.202Z,100621.25
2024-04-19T23:03:25.695Z,100630.59
2024-04-19T23:06:06.227Z,100630.81
2024-04-19T23:08:35.778Z,100627.56
2024-04-19T23:11:05.701Z,100637.28
2024-04-19T23:13:35.484Z,100634.63
2024-04-19T23:16:05.286Z,100639.28
2024-04-19T23:18:35.075Z,100647.97
2024-04-19T23:21:08.728Z,100646.47
2024-04-19T23:23:40.538Z,100645.75
2024-04-19T23:26:12.156Z,100647.66
2024-04-19T23:28:39.764Z,100640.81
2024-04-19T23:31:09.712Z,100657.38
2024-04-19T23:33:39.337Z,100661.41
2024-04-19T23:36:14.063Z,100656.00
2024-04-19T23:38:43.469Z,100661.72
2024-04-19T23:41:14.340Z,100659.94
2024-04-19T23:43:43.743Z,100662.81
2024-04-19T23:46:13.114Z,100661.13
2024-04-19T23:48:42.572Z,100655.94
2024-04-19T23:51:15.148Z,100666.72
2024-04-19T23:53:44.580Z,100669.47
2024-04-19T23:56:13.991Z,100676.94
2024-04-19T23:58:43.292Z,100673.38
